KBAM/BAM METAR and TAF weather

Enter ICAO airport designator
Station Type Date Time Source
KBAM METAR 2019/10/21 02:35 UTC NOAA

KBAM 210235Z AUTO 17003KT 10SM SCT060 OVC080 11/M07 A3015 RMK AO1


Station Type Date Time Source
KBAM Decoded METAR 2019/10/21 02:35 UTC NOAA

Station name not available
Oct 20, 2019 - 10:35 PM EDT / 2019.10.21 0235 UTC
Wind: from the S (170 degrees) at 3 MPH (3 KT):0
Visibility: 10 mile(s):0
Sky conditions: overcast
Temperature: 51 F (11 C)
Dew Point: 19 F (-7 C)
Relative Humidity: 27%
Pressure (altimeter): 30.15 in. Hg (1020 hPa)
ob: KBAM 210235Z AUTO 17003KT 10SM SCT060 OVC080 11/M07 A3015 RMK AO1
cycle: 2

Station Type Date Time Source
KBAM TAF 2019/10/20 18:22 UTC NOAA

TAF KBAM 201720Z 2018/2118 28004KT P6SM SCT080 SCT150
FM202000 23012KT P6SM SCT050 BKN060
FM210200 VRB06KT P6SM FEW050 SCT070

Example: see airport list